Pledger, Texas
Current Conditions -  °F | °C
As of 1:15 AM on Sunday 23 Nov 2014 (Local Time) from KARM Reporting Station
Clear Clear  
Wind Chill: 63°   Ceiling: Unl
Heat Index: 63°   Visibility: 10mi
Dew Point: 62°   Wind: 0mph
Humidity: 96%   Direction: NA
Pressure: 29.68"   Gusts: NA
Location:  29.18°N, 95.91°W
Report Text: KARM 230715Z AUTO 00000KT 10SM CLR 17/16 A2968 RMK AO2 LTG DSNT E T01710164
Loading
Personal Weather Stations






























Interactive Weather Map New forecast layout! Learn more

10-Day Weather Forecast

Advertisements
Track Severe Weather on mobile